Observation data for Northfield on 01/19/2019      Previous  Date  Next       Current Mesonet Observations  Soil Data  Daily Summary Page  Observations in Plain Language
KNOR 190600Z 33008G13KT 00/M01 A3002 RMK A01 T00011007  RH  095%=      5-min Rain = 0
KNOR 190605Z 34011KT 00/M01 A3003 RMK A01 T00021006  RH  096%=      5-min Rain = 0
KNOR 190610Z 34013KT 00/M01 A3003 RMK A01 T00021005  RH  096%=      5-min Rain = 0
KNOR 190615Z 34011KT 00/M01 A3003 RMK A01 T00021005  RH  096%=      5-min Rain = 0
KNOR 190620Z 35011G16KT 00/M01 A3003 RMK A01 T00021005  RH  096%=      5-min Rain = 0
KNOR 190625Z 34013KT 00/M00 A3004 RMK A01 T00031004  RH  096%=      5-min Rain = 0
KNOR 190630Z 34012KT 00/M01 A3004 RMK A01 T00031005  RH  095%=      5-min Rain = 0
KNOR 190635Z 34012G17KT 00/M01 A3004 RMK A01 T00031006  RH  095%=      5-min Rain = 0
KNOR 190640Z 33014G20KT 00/M01 A3005 RMK A01 T00041006  RH  094%=      5-min Rain = 0
KNOR 190645Z 33013G18KT 00/M01 A3005 RMK A01 T00041007  RH  093%=      5-min Rain = 0
KNOR 190650Z 34012G17KT 00/M01 A3005 RMK A01 T00041007  RH  093%=      5-min Rain = 0
KNOR 190655Z 34015G23KT 01/M01 A3006 RMK A01 T00051008  RH  092%=      5-min Rain = 0
KNOR 190700Z 34015G20KT 01/M01 A3006 RMK A01 T00061009  RH  091%=      5-min Rain = 0
KNOR 190705Z 35013G23KT 01/M01 A3006 RMK A01 T00051009  RH  091%=      5-min Rain = 0
KNOR 190710Z 35015G22KT 01/M01 A3006 RMK A01 T00071010  RH  089%=      5-min Rain = 0
KNOR 190715Z 35017G23KT 01/M01 A3006 RMK A01 T00101014  RH  085%=      5-min Rain = 0
KNOR 190720Z 34015G21KT 01/M01 A3006 RMK A01 T00121014  RH  084%=      5-min Rain = 0
KNOR 190725Z 34014G19KT 01/M01 A3006 RMK A01 T00111013  RH  085%=      5-min Rain = 0
KNOR 190730Z 33016G22KT 01/M01 A3006 RMK A01 T00121013  RH  084%=      5-min Rain = 0
KNOR 190735Z 34018G25KT 01/M01 A3006 RMK A01 T00141013  RH  083%=      5-min Rain = 0
KNOR 190740Z 34016G21KT 01/M01 A3006 RMK A01 T00141014  RH  082%=      5-min Rain = 0
KNOR 190745Z 34014G19KT 01/M01 A3006 RMK A01 T00141013  RH  083%=      5-min Rain = 0
KNOR 190750Z 34014KT 01/M01 A3006 RMK A01 T00141013  RH  083%=      5-min Rain = 0
KNOR 190755Z 33014G19KT 02/M01 A3007 RMK A01 T00151012  RH  083%=      5-min Rain = 0
KNOR 190800Z 34014G20KT 02/M01 A3007 RMK A01 T00151012  RH  083%=      5-min Rain = 0
KNOR 190805Z 34015G21KT 02/M01 A3007 RMK A01 T00161013  RH  082%=      5-min Rain = 0
KNOR 190810Z 34017G24KT 02/M02 A3007 RMK A01 T00171016  RH  079%=      5-min Rain = 0.01
KNOR 190815Z 33015KT 02/M02 A3007 RMK A01 T00171015  RH  081%=      5-min Rain = 0
KNOR 190820Z 33013KT 02/M01 A3008 RMK A01 T00171013  RH  081%=      5-min Rain = 0
KNOR 190825Z 33012G17KT 02/M01 A3008 RMK A01 T00171013  RH  081%=      5-min Rain = 0.01
KNOR 190830Z 33012KT 02/M01 A3008 RMK A01 T00181012  RH  082%=      5-min Rain = 0
KNOR 190835Z 33011KT 02/M01 A3008 RMK A01 T00181012  RH  081%=      5-min Rain = 0
KNOR 190840Z 33012G19KT 02/M01 A3008 RMK A01 T00191011  RH  082%=      5-min Rain = 0.01
KNOR 190845Z 34016G21KT 02/M01 A3008 RMK A01 T00201011  RH  081%=      5-min Rain = 0
KNOR 190850Z 34014G22KT 02/M01 A3008 RMK A01 T00211011  RH  080%=      5-min Rain = 0
KNOR 190855Z 33014G24KT 02/M01 A3009 RMK A01 T00191010  RH  082%=      5-min Rain = 0.01
KNOR 190900Z 33018G27KT 02/M02 A3009 RMK A01 T00181017  RH  078%=      5-min Rain = 0
KNOR 190905Z 33020G25KT 02/M02 A3009 RMK A01 T00181021  RH  076%=      5-min Rain = 0
KNOR 190910Z 33018G25KT 02/M02 A301 RMK A01 T00171021  RH  076%=      5-min Rain = 0.01
KNOR 190915Z 34019G27KT 02/M02 A301 RMK A01 T00171023  RH  075%=      5-min Rain = 0
KNOR 190920Z 34022G33KT 02/M03 A3011 RMK A01 T00151028  RH  073%=      5-min Rain = 0
KNOR 190925Z 33020G28KT 01/M03 A3012 RMK A01 T00121032  RH  073%=      5-min Rain = 0
KNOR 190930Z 34022G33KT 01/M04 A3012 RMK A01 T00111035  RH  072%=      5-min Rain = 0
KNOR 190935Z 35021G28KT 01/M04 A3012 RMK A01 T00101037  RH  071%=      5-min Rain = 0
KNOR 190940Z 34020G27KT 01/M04 A3012 RMK A01 T00091038  RH  071%=      5-min Rain = 0
KNOR 190945Z 35019G29KT 01/M04 A3012 RMK A01 T00091038  RH  071%=      5-min Rain = 0
KNOR 190950Z 35018G27KT 01/M04 A3013 RMK A01 T00081041  RH  070%=      5-min Rain = 0
KNOR 190955Z 35016G22KT 01/M04 A3013 RMK A01 T00061041  RH  071%=      5-min Rain = 0
KNOR 191000Z 35016G24KT 01/M04 A3013 RMK A01 T00061041  RH  071%=      5-min Rain = 0
KNOR 191005Z 35018G25KT 01/M04 A3013 RMK A01 T00061042  RH  070%=      5-min Rain = 0
KNOR 191010Z 34014G21KT 01/M04 A3014 RMK A01 T00061041  RH  071%=      5-min Rain = 0
KNOR 191015Z 34012KT 01/M04 A3014 RMK A01 T00051039  RH  073%=      5-min Rain = 0
KNOR 191020Z 33011G18KT 00/M04 A3014 RMK A01 T00041038  RH  074%=      5-min Rain = 0
KNOR 191025Z 34015KT 01/M04 A3014 RMK A01 T00051038  RH  073%=      5-min Rain = 0
KNOR 191030Z 34015G21KT 01/M04 A3015 RMK A01 T00051039  RH  073%=      5-min Rain = 0
KNOR 191035Z 34017G23KT 01/M04 A3015 RMK A01 T00051041  RH  072%=      5-min Rain = 0
KNOR 191040Z 34017G25KT 01/M04 A3015 RMK A01 T00051043  RH  071%=      5-min Rain = 0
KNOR 191045Z 34015G20KT 00/M04 A3015 RMK A01 T00041043  RH  071%=      5-min Rain = 0
KNOR 191050Z 33019G26KT 00/M05 A3016 RMK A01 T00031046  RH  070%=      5-min Rain = 0
KNOR 191055Z 33019G27KT 00/M05 A3016 RMK A01 T00021048  RH  069%=      5-min Rain = 0
KNOR 191100Z 33018G24KT 00/05 A3016 RMK A01 T00000-49  RH  070%=      5-min Rain = 0
KNOR 191105Z 33016G22KT M00/M05 A3016 RMK A01 T10021050  RH  071%=      5-min Rain = 0
KNOR 191110Z 34016G25KT M00/M05 A3017 RMK A01 T10031051  RH  070%=      5-min Rain = 0
KNOR 191115Z 34016G23KT M01/M05 A3017 RMK A01 T10051052  RH  070%=      5-min Rain = 0
KNOR 191120Z 34017G24KT M01/M05 A3017 RMK A01 T10051054  RH  069%=      5-min Rain = 0
KNOR 191125Z 34016G22KT M01/M05 A3017 RMK A01 T10051054  RH  070%=      5-min Rain = 0
KNOR 191130Z 34016KT M01/M05 A3017 RMK A01 T10051054  RH  070%=      5-min Rain = 0
KNOR 191135Z 33012G18KT M01/M05 A3017 RMK A01 T10061053  RH  071%=      5-min Rain = 0
KNOR 191140Z 33012KT M01/M05 A3017 RMK A01 T10061052  RH  071%=      5-min Rain = 0
KNOR 191145Z 33012KT M01/M05 A3018 RMK A01 T10061052  RH  072%=      5-min Rain = 0
KNOR 191150Z 32014G21KT M01/M05 A3018 RMK A01 T10061052  RH  071%=      5-min Rain = 0
KNOR 191155Z 33014KT M01/M05 A3018 RMK A01 T10051052  RH  071%=      5-min Rain = 0
KNOR 191200Z 33015G21KT M01/M05 A3018 RMK A01 T10061053  RH  071%=      5-min Rain = 0
KNOR 191205Z 33013KT M01/M05 A3019 RMK A01 T10061053  RH  071%=      5-min Rain = 0
KNOR 191210Z 33015G22KT M01/M05 A3019 RMK A01 T10061053  RH  070%=      5-min Rain = 0
KNOR 191215Z 33016G24KT M01/M05 A3019 RMK A01 T10051054  RH  069%=      5-min Rain = 0
KNOR 191220Z 33015G22KT M01/M05 A302 RMK A01 T10061054  RH  070%=      5-min Rain = 0
KNOR 191225Z 33013G21KT M01/M05 A302 RMK A01 T10061054  RH  070%=      5-min Rain = 0
KNOR 191230Z 33010G15KT M01/M05 A3021 RMK A01 T10071054  RH  071%=      5-min Rain = 0
KNOR 191235Z 33009KT M01/M05 A3021 RMK A01 T10091053  RH  072%=      5-min Rain = 0
KNOR 191240Z 33009KT M01/M05 A3021 RMK A01 T10091053  RH  073%=      5-min Rain = 0
KNOR 191245Z 33012G21KT M01/M05 A3021 RMK A01 T10071052  RH  071%=      5-min Rain = 0
KNOR 191250Z 34012G17KT M01/M05 A3022 RMK A01 T10061052  RH  071%=      5-min Rain = 0
KNOR 191255Z 34010KT M01/M05 A3022 RMK A01 T10061052  RH  071%=      5-min Rain = 0
KNOR 191300Z 34011G19KT M01/M05 A3022 RMK A01 T10051051  RH  071%=      5-min Rain = 0
KNOR 191305Z 34011G16KT M00/M05 A3022 RMK A01 T10031051  RH  070%=      5-min Rain = 0
KNOR 191310Z 33010KT M00/M05 A3023 RMK A01 T10041051  RH  071%=      5-min Rain = 0
KNOR 191315Z 33008G13KT M01/M05 A3023 RMK A01 T10051050  RH  071%=      5-min Rain = 0
KNOR 191320Z 32008KT M01/M05 A3023 RMK A01 T10061050  RH  073%=      5-min Rain = 0
KNOR 191325Z 32009KT M01/M05 A3023 RMK A01 T10071050  RH  073%=      5-min Rain = 0
KNOR 191330Z 33012KT M01/M05 A3023 RMK A01 T10051048  RH  073%=      5-min Rain = 0
KNOR 191335Z 33012G17KT M01/M05 A3023 RMK A01 T10051048  RH  073%=      5-min Rain = 0
KNOR 191340Z 33011KT M01/M05 A3024 RMK A01 T10061047  RH  074%=      5-min Rain = 0
KNOR 191345Z 33012G17KT M01/M05 A3024 RMK A01 T10051047  RH  074%=      5-min Rain = 0
KNOR 191350Z 33011G17KT M01/M05 A3024 RMK A01 T10061048  RH  073%=      5-min Rain = 0
KNOR 191355Z 33010G15KT M01/M05 A3025 RMK A01 T10071048  RH  074%=      5-min Rain = 0
KNOR 191400Z 33012KT M01/M05 A3025 RMK A01 T10071047  RH  074%=      5-min Rain = 0
KNOR 191405Z 33011KT M01/M05 A3025 RMK A01 T10061047  RH  074%=      5-min Rain = 0
KNOR 191410Z 33010KT M01/M05 A3026 RMK A01 T10071046  RH  075%=      5-min Rain = 0
KNOR 191415Z 33009KT M01/M05 A3026 RMK A01 T10071046  RH  075%=      5-min Rain = 0
KNOR 191420Z 33011KT M01/M05 A3026 RMK A01 T10061046  RH  075%=      5-min Rain = 0
KNOR 191425Z 33010KT M01/M05 A3026 RMK A01 T10051046  RH  074%=      5-min Rain = 0
KNOR 191430Z 33012G17KT M00/M05 A3027 RMK A01 T10031045  RH  073%=      5-min Rain = 0
KNOR 191435Z 33011G16KT M00/M05 A3027 RMK A01 T10011045  RH  072%=      5-min Rain = 0
KNOR 191440Z 34012G18KT 00/M05 A3027 RMK A01 T00011046  RH  071%=      5-min Rain = 0
KNOR 191445Z 33012KT 00/M05 A3028 RMK A01 T00031045  RH  070%=      5-min Rain = 0
KNOR 191450Z 33011KT 01/M04 A3028 RMK A01 T00051044  RH  070%=      5-min Rain = 0
KNOR 191455Z 33011G16KT 01/M04 A3028 RMK A01 T00061044  RH  069%=      5-min Rain = 0
KNOR 191500Z 33012KT 01/M04 A3028 RMK A01 T00081043  RH  069%=      5-min Rain = 0
KNOR 191505Z 33013G20KT 01/M04 A3029 RMK A01 T00091043  RH  068%=      5-min Rain = 0
KNOR 191510Z 33015G20KT 01/M04 A3029 RMK A01 T00101044  RH  067%=      5-min Rain = 0
KNOR 191515Z 34015G23KT 01/M05 A3029 RMK A01 T00121045  RH  066%=      5-min Rain = 0
KNOR 191520Z 34015G21KT 02/M04 A303 RMK A01 T00151044  RH  065%=      5-min Rain = 0
KNOR 191525Z 34015G21KT 02/M04 A303 RMK A01 T00161044  RH  064%=      5-min Rain = 0
KNOR 191530Z 34018G24KT 02/M05 A303 RMK A01 T00161046  RH  063%=      5-min Rain = 0
KNOR 191535Z 34017G24KT 02/M05 A3031 RMK A01 T00171046  RH  063%=      5-min Rain = 0
KNOR 191540Z 34020G26KT 02/M05 A3031 RMK A01 T00191047  RH  062%=      5-min Rain = 0
KNOR 191545Z 34019G27KT 02/M05 A3032 RMK A01 T00201048  RH  061%=      5-min Rain = 0
KNOR 191550Z 34019G27KT 02/M05 A3032 RMK A01 T00211050  RH  060%=      5-min Rain = 0
KNOR 191555Z 34024G32KT 02/M05 A3032 RMK A01 T00201053  RH  058%=      5-min Rain = 0
KNOR 191600Z 35020G29KT 02/M05 A3032 RMK A01 T00221052  RH  058%=      5-min Rain = 0
KNOR 191605Z 36018G25KT 02/M05 A3032 RMK A01 T00231052  RH  058%=      5-min Rain = 0
KNOR 191610Z 35015G23KT 03/M05 A3033 RMK A01 T00271049  RH  058%=      5-min Rain = 0
KNOR 191615Z 35021G28KT 03/M05 A3032 RMK A01 T00261052  RH  057%=      5-min Rain = 0
KNOR 191620Z 35016G24KT 03/M05 A3033 RMK A01 T00271049  RH  058%=      5-min Rain = 0
KNOR 191625Z 35019G25KT 03/M05 A3033 RMK A01 T00291048  RH  057%=      5-min Rain = 0
KNOR 191630Z 35017G22KT 03/M05 A3033 RMK A01 T00331046  RH  056%=      5-min Rain = 0
KNOR 191635Z 35016G21KT 04/M04 A3033 RMK A01 T00351044  RH  056%=      5-min Rain = 0
KNOR 191640Z 33016G23KT 04/M04 A3033 RMK A01 T00361042  RH  057%=      5-min Rain = 0
KNOR 191645Z 33019G27KT 04/M04 A3033 RMK A01 T00361041  RH  057%=      5-min Rain = 0
KNOR 191650Z 33020G26KT 03/M05 A3033 RMK A01 T00331046  RH  056%=      5-min Rain = 0
KNOR 191655Z 35019G26KT 03/M05 A3033 RMK A01 T00341047  RH  056%=      5-min Rain = 0
KNOR 191700Z 35022G27KT 04/M05 A3033 RMK A01 T00351051  RH  053%=      5-min Rain = 0
KNOR 191705Z 34018G24KT 04/M05 A3033 RMK A01 T00381051  RH  052%=      5-min Rain = 0
KNOR 191710Z 34019G26KT 04/M05 A3033 RMK A01 T00391053  RH  051%=      5-min Rain = 0
KNOR 191715Z 33019G26KT 04/M05 A3033 RMK A01 T00411050  RH  052%=      5-min Rain = 0
KNOR 191720Z 33020G26KT 04/M05 A3033 RMK A01 T00421049  RH  052%=      5-min Rain = 0
KNOR 191725Z 34020G28KT 04/M05 A3034 RMK A01 T00391049  RH  053%=      5-min Rain = 0
KNOR 191730Z 34023G29KT 04/M05 A3033 RMK A01 T00401049  RH  053%=      5-min Rain = 0
KNOR 191735Z 34018G25KT 04/M05 A3033 RMK A01 T00431046  RH  053%=      5-min Rain = 0
KNOR 191740Z 33019G28KT 04/M05 A3033 RMK A01 T00441045  RH  053%=      5-min Rain = 0
KNOR 191745Z 35018G26KT 05/M05 A3033 RMK A01 T00451045  RH  052%=      5-min Rain = 0
KNOR 191750Z 35018G23KT 05/M05 A3033 RMK A01 T00451046  RH  052%=      5-min Rain = 0
KNOR 191755Z 34016G22KT 05/M04 A3033 RMK A01 T00481044  RH  052%=      5-min Rain = 0
KNOR 191800Z 34016G23KT 05/M04 A3033 RMK A01 T00471044  RH  052%=      5-min Rain = 0
KNOR 191805Z 33016G23KT 05/M04 A3033 RMK A01 T00481044  RH  051%=      5-min Rain = 0
KNOR 191810Z 33018G23KT 05/M05 A3032 RMK A01 T00481045  RH  051%=      5-min Rain = 0
KNOR 191815Z 33018G25KT 05/M05 A3032 RMK A01 T00501045  RH  050%=      5-min Rain = 0
KNOR 191820Z 33019G26KT 05/M05 A3032 RMK A01 T00511045  RH  050%=      5-min Rain = 0
KNOR 191825Z 33016G22KT 06/M04 A3032 RMK A01 T00561042  RH  049%=      5-min Rain = 0
KNOR 191830Z 33018G25KT 06/M04 A3031 RMK A01 T00551043  RH  049%=      5-min Rain = 0
KNOR 191835Z 33018G23KT 06/M05 A3031 RMK A01 T00561045  RH  048%=      5-min Rain = 0
KNOR 191840Z 33018G24KT 06/M05 A3031 RMK A01 T00551046  RH  048%=      5-min Rain = 0
KNOR 191845Z 33017G22KT 06/M04 A3031 RMK A01 T00581044  RH  048%=      5-min Rain = 0
KNOR 191850Z 33018G24KT 06/M05 A3031 RMK A01 T00591045  RH  047%=      5-min Rain = 0
KNOR 191855Z 33020G26KT 06/M05 A3031 RMK A01 T00561047  RH  047%=      5-min Rain = 0
KNOR 191900Z 33019G24KT 06/M05 A3031 RMK A01 T00601046  RH  047%=      5-min Rain = 0
KNOR 191905Z 34018G26KT 06/M05 A303 RMK A01 T00611046  RH  046%=      5-min Rain = 0
KNOR 191910Z 33015G21KT 06/M05 A303 RMK A01 T00641045  RH  046%=      5-min Rain = 0
KNOR 191915Z 34013G22KT 07/M05 A3029 RMK A01 T00671045  RH  045%=      5-min Rain = 0
KNOR 191920Z 34016G23KT 07/M05 A3029 RMK A01 T00681046  RH  044%=      5-min Rain = 0
KNOR 191925Z 35017G24KT 07/M05 A3029 RMK A01 T00691047  RH  043%=      5-min Rain = 0
KNOR 191930Z 35015G24KT 07/M05 A3029 RMK A01 T00691047  RH  044%=      5-min Rain = 0
KNOR 191935Z 33016G22KT 07/M05 A3029 RMK A01 T00731046  RH  043%=      5-min Rain = 0
KNOR 191940Z 34017G22KT 07/M05 A3028 RMK A01 T00711047  RH  043%=      5-min Rain = 0
KNOR 191945Z 34017G22KT 07/M05 A3028 RMK A01 T00741046  RH  042%=      5-min Rain = 0
KNOR 191950Z 34015G20KT 08/M04 A3028 RMK A01 T00761044  RH  042%=      5-min Rain = 0
KNOR 191955Z 34016G24KT 08/M05 A3028 RMK A01 T00781045  RH  042%=      5-min Rain = 0
KNOR 192000Z 33018KT 07/M05 A3027 RMK A01 T00741047  RH  042%=      5-min Rain = 0
KNOR 192005Z 34015G24KT 08/M04 A3027 RMK A01 T00811044  RH  041%=      5-min Rain = 0
KNOR 192010Z 35018G23KT 08/M05 A3026 RMK A01 T00761049  RH  041%=      5-min Rain = 0
KNOR 192015Z 34014G22KT 08/M05 A3026 RMK A01 T00801045  RH  041%=      5-min Rain = 0
KNOR 192020Z 34018G23KT 08/M05 A3026 RMK A01 T00781048  RH  041%=      5-min Rain = 0
KNOR 192025Z 34017G24KT 08/M05 A3026 RMK A01 T00781047  RH  041%=      5-min Rain = 0
KNOR 192030Z 34017G24KT 08/M05 A3026 RMK A01 T00781047  RH  041%=      5-min Rain = 0
KNOR 192035Z 34016G22KT 08/M05 A3026 RMK A01 T00791046  RH  041%=      5-min Rain = 0
KNOR 192040Z 34016G24KT 08/M05 A3026 RMK A01 T00781047  RH  041%=      5-min Rain = 0
KNOR 192045Z 33017G24KT 08/M05 A3026 RMK A01 T00791046  RH  041%=      5-min Rain = 0
KNOR 192050Z 33015G20KT 08/M04 A3026 RMK A01 T00801044  RH  041%=      5-min Rain = 0
KNOR 192055Z 33016KT 08/M05 A3026 RMK A01 T00811045  RH  041%=      5-min Rain = 0
KNOR 192100Z 35013G19KT 08/M05 A3026 RMK A01 T00791045  RH  041%=      5-min Rain = 0
KNOR 192105Z 33015G21KT 08/M04 A3027 RMK A01 T00831044  RH  041%=      5-min Rain = 0
KNOR 192110Z 33013G22KT 08/M04 A3027 RMK A01 T00831043  RH  041%=      5-min Rain = 0
KNOR 192115Z 33015G21KT 08/M04 A3027 RMK A01 T00841044  RH  040%=      5-min Rain = 0
KNOR 192120Z 33014G20KT 08/M04 A3027 RMK A01 T00831044  RH  040%=      5-min Rain = 0
KNOR 192125Z 33014G19KT 09/M04 A3027 RMK A01 T00861043  RH  040%=      5-min Rain = 0
KNOR 192130Z 33012G17KT 09/M04 A3028 RMK A01 T00871043  RH  040%=      5-min Rain = 0
KNOR 192135Z 32014G19KT 09/M04 A3028 RMK A01 T00851044  RH  040%=      5-min Rain = 0
KNOR 192140Z 33012KT 09/M04 A3028 RMK A01 T00851044  RH  040%=      5-min Rain = 0
KNOR 192145Z 32013G18KT 09/M04 A3028 RMK A01 T00871043  RH  040%=      5-min Rain = 0
KNOR 192150Z 34011G18KT 09/M04 A3028 RMK A01 T00891042  RH  039%=      5-min Rain = 0
KNOR 192155Z 35014KT 09/M04 A3028 RMK A01 T00861044  RH  040%=      5-min Rain = 0
KNOR 192200Z 33013G18KT 09/M04 A3028 RMK A01 T00891041  RH  040%=      5-min Rain = 0
KNOR 192205Z 34013KT 09/M04 A3028 RMK A01 T00871043  RH  040%=      5-min Rain = 0
KNOR 192210Z 34013G18KT 09/M04 A3028 RMK A01 T00871042  RH  040%=      5-min Rain = 0
KNOR 192215Z 34014KT 09/M04 A3028 RMK A01 T00861043  RH  040%=      5-min Rain = 0
KNOR 192220Z 35012KT 09/M04 A3028 RMK A01 T00861041  RH  041%=      5-min Rain = 0
KNOR 192225Z 34013G18KT 09/M04 A3027 RMK A01 T00861040  RH  041%=      5-min Rain = 0
KNOR 192230Z 34014KT 09/M04 A3027 RMK A01 T00861039  RH  041%=      5-min Rain = 0
KNOR 192235Z 33015KT 09/M04 A3027 RMK A01 T00861039  RH  041%=      5-min Rain = 0
KNOR 192240Z 34013G18KT 08/M04 A3028 RMK A01 T00841041  RH  041%=      5-min Rain = 0
KNOR 192245Z 34013G18KT 09/M04 A3028 RMK A01 T00851040  RH  041%=      5-min Rain = 0
KNOR 192250Z 34011G17KT 08/M04 A3028 RMK A01 T00841039  RH  042%=      5-min Rain = 0
KNOR 192255Z 33012KT 08/M04 A3028 RMK A01 T00841039  RH  042%=      5-min Rain = 0
KNOR 192300Z 34013KT 08/M04 A3028 RMK A01 T00831039  RH  042%=      5-min Rain = 0
KNOR 192305Z 34012KT 08/M04 A3028 RMK A01 T00811040  RH  042%=      5-min Rain = 0
KNOR 192310Z 34011KT 08/M04 A3028 RMK A01 T00811039  RH  043%=      5-min Rain = 0
KNOR 192315Z 34010G16KT 08/M04 A3028 RMK A01 T00811038  RH  043%=      5-min Rain = 0
KNOR 192320Z 34012KT 08/M04 A3028 RMK A01 T00791038  RH  044%=      5-min Rain = 0
KNOR 192325Z 34010KT 08/M04 A3028 RMK A01 T00781037  RH  044%=      5-min Rain = 0
KNOR 192330Z 34010KT 08/M04 A3028 RMK A01 T00761037  RH  045%=      5-min Rain = 0
KNOR 192335Z 34009KT 07/M04 A3028 RMK A01 T00741037  RH  046%=      5-min Rain = 0
KNOR 192340Z 34009KT 07/M04 A3028 RMK A01 T00731035  RH  046%=      5-min Rain = 0
KNOR 192345Z 34009KT 07/M04 A3028 RMK A01 T00701035  RH  047%=      5-min Rain = 0
KNOR 192350Z 35008KT 07/M04 A3028 RMK A01 T00671036  RH  048%=      5-min Rain = 0
KNOR 192355Z 35006KT 06/M04 A3028 RMK A01 T00641036  RH  049%=      5-min Rain = 0
KNOR 200000Z 35006KT 06/M04 A3028 RMK A01 T00591036  RH  051%=      5-min Rain = 0
KNOR 200005Z 35006KT 06/M04 A3028 RMK A01 T00551037  RH  052%=      5-min Rain = 0
KNOR 200010Z 36006KT 05/M04 A3028 RMK A01 T00521037  RH  053%=      5-min Rain = 0
KNOR 200015Z 01006KT 05/M04 A3028 RMK A01 T00491038  RH  054%=      5-min Rain = 0
KNOR 200020Z 01006KT 05/M04 A3028 RMK A01 T00451038  RH  055%=      5-min Rain = 0
KNOR 200025Z 00006KT 04/M04 A3028 RMK A01 T00421039  RH  056%=      5-min Rain = 0
KNOR 200030Z 00007KT 04/M04 A3028 RMK A01 T00421038  RH  056%=      5-min Rain = 0
KNOR 200035Z 00007KT 04/M04 A3028 RMK A01 T00411038  RH  057%=      5-min Rain = 0
KNOR 200040Z 01007KT 04/M04 A3028 RMK A01 T00361039  RH  058%=      5-min Rain = 0
KNOR 200045Z 01007KT 03/M04 A3028 RMK A01 T00331039  RH  060%=      5-min Rain = 0
KNOR 200050Z 02007KT 03/M04 A3028 RMK A01 T00341038  RH  059%=      5-min Rain = 0
KNOR 200055Z 02007KT 03/M04 A3029 RMK A01 T00341038  RH  059%=      5-min Rain = 0
KNOR 200100Z 02007KT 03/M04 A3029 RMK A01 T00341039  RH  059%=      5-min Rain = 0
KNOR 200105Z 02006KT 04/M04 A3029 RMK A01 T00361039  RH  058%=      5-min Rain = 0
KNOR 200110Z 02006KT 04/M04 A3029 RMK A01 T00371040  RH  057%=      5-min Rain = 0
KNOR 200115Z 02007KT 04/M04 A3029 RMK A01 T00381039  RH  057%=      5-min Rain = 0
KNOR 200120Z 02007KT 04/M04 A3029 RMK A01 T00381039  RH  057%=      5-min Rain = 0
KNOR 200125Z 02007KT 04/M04 A3029 RMK A01 T00361039  RH  058%=      5-min Rain = 0
KNOR 200130Z 04007KT 03/M04 A3029 RMK A01 T00321040  RH  059%=      5-min Rain = 0
KNOR 200135Z 04007KT 03/M04 A3029 RMK A01 T00281041  RH  061%=      5-min Rain = 0
KNOR 200140Z 05006KT 03/M04 A3028 RMK A01 T00281042  RH  060%=      5-min Rain = 0
KNOR 200145Z 06006KT 03/M04 A3028 RMK A01 T00261043  RH  061%=      5-min Rain = 0
KNOR 200150Z 08007KT 03/M04 A3028 RMK A01 T00261043  RH  061%=      5-min Rain = 0
KNOR 200155Z 09007KT 02/M05 A3028 RMK A01 T00241045  RH  061%=      5-min Rain = 0
KNOR 200200Z 10007KT 02/M05 A3028 RMK A01 T00171046  RH  063%=      5-min Rain = 0
KNOR 200205Z 10007KT 02/M05 A3028 RMK A01 T00171047  RH  063%=      5-min Rain = 0
KNOR 200210Z 10007KT 02/M05 A3028 RMK A01 T00181050  RH  061%=      5-min Rain = 0
KNOR 200215Z 10008KT 02/M05 A3028 RMK A01 T00201054  RH  058%=      5-min Rain = 0
KNOR 200220Z 10008KT 02/M06 A3028 RMK A01 T00191056  RH  057%=      5-min Rain = 0
KNOR 200225Z 09007KT 02/M06 A3029 RMK A01 T00171058  RH  058%=      5-min Rain = 0
KNOR 200230Z 09007KT 01/M06 A3029 RMK A01 T00141059  RH  058%=      5-min Rain = 0
KNOR 200235Z 08008KT 01/M06 A3029 RMK A01 T00141063  RH  056%=      5-min Rain = 0
KNOR 200240Z 09007KT 01/M06 A303 RMK A01 T00141064  RH  056%=      5-min Rain = 0
KNOR 200245Z 08008KT 01/M06 A3031 RMK A01 T00121064  RH  057%=      5-min Rain = 0
KNOR 200250Z 08007KT 01/M07 A3031 RMK A01 T00101066  RH  057%=      5-min Rain = 0
KNOR 200255Z 08008KT 01/M07 A3031 RMK A01 T00111068  RH  056%=      5-min Rain = 0
KNOR 200300Z 08008KT 01/M07 A3031 RMK A01 T00111070  RH  055%=      5-min Rain = 0
KNOR 200305Z 08008KT 01/M07 A3031 RMK A01 T00101071  RH  055%=      5-min Rain = 0
KNOR 200310Z 08009KT 01/M07 A303 RMK A01 T00101073  RH  054%=      5-min Rain = 0
KNOR 200315Z 08009KT 01/M07 A303 RMK A01 T00101074  RH  054%=      5-min Rain = 0
KNOR 200320Z 08008KT 01/M07 A303 RMK A01 T00081074  RH  054%=      5-min Rain = 0
KNOR 200325Z 08008KT 01/M07 A303 RMK A01 T00071074  RH  054%=      5-min Rain = 0
KNOR 200330Z 08008KT 01/M07 A303 RMK A01 T00061074  RH  055%=      5-min Rain = 0
KNOR 200335Z 08009KT 01/M07 A303 RMK A01 T00051074  RH  056%=      5-min Rain = 0
KNOR 200340Z 09008KT 00/M07 A303 RMK A01 T00041074  RH  056%=      5-min Rain = 0
KNOR 200345Z 09007KT 00/M07 A303 RMK A01 T00031074  RH  056%=      5-min Rain = 0
KNOR 200350Z 10007KT 00/M07 A303 RMK A01 T00021074  RH  057%=      5-min Rain = 0
KNOR 200355Z 10007KT 00/M07 A303 RMK A01 T00011074  RH  057%=      5-min Rain = 0
KNOR 200400Z 11006KT 00/07 A303 RMK A01 T00-00-74  RH  058%=      5-min Rain = 0
KNOR 200405Z 13003KT M00/M07 A3031 RMK A01 T10021074  RH  058%=      5-min Rain = 0
KNOR 200410Z 20003KT M01/M07 A3031 RMK A01 T10121074  RH  063%=      5-min Rain = 0
KNOR 200415Z 16003KT M02/M07 A3031 RMK A01 T10151073  RH  065%=      5-min Rain = 0
KNOR 200420Z 13003KT M01/M07 A3032 RMK A01 T10141072  RH  064%=      5-min Rain = 0
KNOR 200425Z 14004KT M02/M07 A3031 RMK A01 T10151072  RH  065%=      5-min Rain = 0
KNOR 200430Z 12005KT M02/M07 A3031 RMK A01 T10151073  RH  065%=      5-min Rain = 0
KNOR 200435Z 12006KT M01/M07 A303 RMK A01 T10111074  RH  062%=      5-min Rain = 0
KNOR 200440Z 12006KT M01/M08 A303 RMK A01 T10081075  RH  060%=      5-min Rain = 0
KNOR 200445Z 14006KT M01/M08 A3029 RMK A01 T10101075  RH  061%=      5-min Rain = 0
KNOR 200450Z 16005KT M02/M07 A303 RMK A01 T10181073  RH  066%=      5-min Rain = 0
KNOR 200455Z 15005KT M02/M07 A303 RMK A01 T10221074  RH  067%=      5-min Rain = 0
KNOR 200500Z 13005KT M02/M08 A3031 RMK A01 T10181075  RH  065%=      5-min Rain = 0
KNOR 200505Z 13006KT M01/M08 A3031 RMK A01 T10141077  RH  062%=      5-min Rain = 0
KNOR 200510Z 14005KT M01/M08 A3031 RMK A01 T10141077  RH  062%=      5-min Rain = 0
KNOR 200515Z 13005KT M02/M08 A3032 RMK A01 T10151077  RH  062%=      5-min Rain = 0
KNOR 200520Z 13006KT M02/M08 A3032 RMK A01 T10151078  RH  062%=      5-min Rain = 0
KNOR 200525Z 12005KT M02/M08 A3032 RMK A01 T10151078  RH  062%=      5-min Rain = 0
KNOR 200530Z 13005KT M02/M08 A3032 RMK A01 T10161079  RH  062%=      5-min Rain = 0
KNOR 200535Z 15006KT M02/M08 A3032 RMK A01 T10211079  RH  065%=      5-min Rain = 0
KNOR 200540Z 14005KT M03/M08 A3032 RMK A01 T10251079  RH  066%=      5-min Rain = 0
KNOR 200545Z 12004KT M02/M08 A3033 RMK A01 T10231080  RH  065%=      5-min Rain = 0
KNOR 200550Z 11005KT M02/M08 A3033 RMK A01 T10201081  RH  063%=      5-min Rain = 0
KNOR 200555Z 12006KT M02/M08 A3032 RMK A01 T10201081  RH  063%=      5-min Rain = 0

Page generated in 0.0291 seconds.